createdAt,value
2023-05-22T00:00:09.076Z,99924.35
2023-05-22T00:03:02.903Z,99925.60
2023-05-22T00:05:33.914Z,99924.18
2023-05-22T00:08:04.266Z,99919.71
2023-05-22T00:10:32.993Z,99913.84
2023-05-22T00:13:01.706Z,99910.52
2023-05-22T00:15:30.499Z,99905.77
2023-05-22T00:17:59.244Z,99900.77
2023-05-22T00:20:28.143Z,99900.35
2023-05-22T00:23:00.513Z,99903.16
2023-05-22T00:25:29.489Z,99897.09
2023-05-22T00:27:58.160Z,99894.91
2023-05-22T00:30:27.499Z,99893.31
2023-05-22T00:32:56.377Z,99896.00
2023-05-22T00:35:25.331Z,99898.89
2023-05-22T00:37:53.979Z,99895.20
2023-05-22T00:40:23.124Z,99894.08
2023-05-22T00:42:51.936Z,99899.23
2023-05-22T00:45:22.845Z,99897.46
2023-05-22T00:47:51.836Z,99895.73
2023-05-22T00:50:20.982Z,99897.30
2023-05-22T00:52:49.818Z,99895.45
2023-05-22T00:55:18.653Z,99896.08
2023-05-22T00:57:47.926Z,99892.73
2023-05-22T01:00:18.263Z,99884.78
2023-05-22T01:02:47.401Z,99884.91
2023-05-22T01:05:17.536Z,99880.42
2023-05-22T01:07:46.381Z,99878.70
2023-05-22T01:10:15.189Z,99876.16
2023-05-22T01:12:55.621Z,99873.08
2023-05-22T01:15:31.918Z,99873.30
2023-05-22T01:18:11.939Z,99870.59
2023-05-22T01:20:48.691Z,99873.86
2023-05-22T01:23:57.512Z,99872.27
2023-05-22T01:26:43.418Z,99873.32
2023-05-22T01:29:26.615Z,99879.48
2023-05-22T01:31:57.485Z,99879.38
2023-05-22T01:34:26.758Z,99880.15
2023-05-22T01:36:57.224Z,99881.34
2023-05-22T01:39:27.754Z,99882.23
2023-05-22T01:41:56.496Z,99887.46
2023-05-22T01:44:25.206Z,99890.13
2023-05-22T01:46:54.207Z,99889.63
2023-05-22T01:49:22.945Z,99889.91
2023-05-22T01:51:54.254Z,99887.70
2023-05-22T01:54:31.060Z,99892.70
2023-05-22T01:57:05.241Z,99891.56
2023-05-22T01:59:44.887Z,99890.24
2023-05-22T02:02:15.785Z,99887.73
2023-05-22T02:04:51.758Z,99888.67
2023-05-22T02:07:24.291Z,99883.55
2023-05-22T02:09:54.349Z,99879.86
2023-05-22T02:12:23.874Z,99883.14
2023-05-22T02:14:53.823Z,99883.55
2023-05-22T02:17:23.012Z,99887.39
2023-05-22T02:19:51.733Z,99886.30
2023-05-22T02:22:20.492Z,99885.84
2023-05-22T02:24:49.588Z,99883.40
2023-05-22T02:27:18.552Z,99885.05
2023-05-22T02:29:47.270Z,99883.33
2023-05-22T02:32:16.256Z,99881.53
2023-05-22T02:34:44.996Z,99881.33
2023-05-22T02:37:15.268Z,99879.21
2023-05-22T02:39:44.030Z,99873.70
2023-05-22T02:42:12.997Z,99874.58
2023-05-22T02:44:41.784Z,99875.29
2023-05-22T02:47:10.524Z,99873.91
2023-05-22T02:49:39.362Z,99873.64
2023-05-22T02:52:08.291Z,99871.64
2023-05-22T02:54:37.084Z,99869.02
2023-05-22T02:57:06.385Z,99867.40
2023-05-22T02:59:36.219Z,99867.75
2023-05-22T03:02:06.284Z,99866.62
2023-05-22T03:04:38.040Z,99864.02
2023-05-22T03:07:06.984Z,99868.89
2023-05-22T03:09:35.874Z,99868.66
2023-05-22T03:12:05.536Z,99867.91
2023-05-22T03:14:34.915Z,99870.17
2023-05-22T03:17:04.266Z,99872.54
2023-05-22T03:19:33.052Z,99871.20
2023-05-22T03:22:01.954Z,99868.90
2023-05-22T03:24:31.640Z,99871.95
2023-05-22T03:27:00.823Z,99871.40
2023-05-22T03:29:36.801Z,99871.08
2023-05-22T03:32:07.061Z,99871.48
2023-05-22T03:34:35.883Z,99872.48
2023-05-22T03:37:05.236Z,99868.03
2023-05-22T03:39:34.338Z,99878.17
2023-05-22T03:42:08.727Z,99877.39
2023-05-22T03:44:37.518Z,99878.44
2023-05-22T03:47:07.553Z,99882.70
2023-05-22T03:49:36.270Z,99882.40
2023-05-22T03:52:09.523Z,99886.20
2023-05-22T03:54:39.281Z,99890.26
2023-05-22T03:57:07.979Z,99888.83
2023-05-22T03:59:38.202Z,99888.33
2023-05-22T04:02:06.999Z,99884.67
2023-05-22T04:04:37.818Z,99883.41
2023-05-22T04:07:08.500Z,99882.15
2023-05-22T04:09:37.190Z,99881.58
2023-05-22T04:12:07.719Z,99879.39
2023-05-22T04:14:36.626Z,99878.54
2023-05-22T04:17:05.976Z,99874.86
2023-05-22T04:19:36.249Z,99869.30
2023-05-22T04:22:06.180Z,99870.58
2023-05-22T04:24:34.997Z,99867.13
2023-05-22T04:27:04.575Z,99864.33
2023-05-22T04:29:35.752Z,99868.55
2023-05-22T04:32:05.728Z,99864.95
2023-05-22T04:34:36.807Z,99862.83
2023-05-22T04:37:06.373Z,99866.05
2023-05-22T04:39:35.216Z,99865.48
2023-05-22T04:42:05.316Z,99866.91
2023-05-22T04:44:34.126Z,99863.35
2023-05-22T04:47:06.005Z,99865.70
2023-05-22T04:49:36.365Z,99860.88
2023-05-22T04:52:06.640Z,99856.73
2023-05-22T04:54:36.000Z,99857.23
2023-05-22T04:57:05.446Z,99860.53
2023-05-22T04:59:37.317Z,99862.08
2023-05-22T05:02:06.362Z,99861.02
2023-05-22T05:04:35.450Z,99857.21
2023-05-22T05:07:05.569Z,99860.63
2023-05-22T05:09:34.337Z,99858.92
2023-05-22T05:12:04.188Z,99855.86
2023-05-22T05:14:32.928Z,99855.36
2023-05-22T05:17:01.862Z,99858.67
2023-05-22T05:19:30.700Z,99859.14
2023-05-22T05:21:59.532Z,99861.65
2023-05-22T05:24:28.899Z,99856.15
2023-05-22T05:26:57.918Z,99856.91
2023-05-22T05:29:26.818Z,99858.28
2023-05-22T05:32:04.833Z,99860.32
2023-05-22T05:34:40.186Z,99861.54
2023-05-22T05:37:29.297Z,99862.49
2023-05-22T05:40:00.610Z,99862.02
2023-05-22T05:42:29.365Z,99868.11
2023-05-22T05:45:00.194Z,99866.05
2023-05-22T05:47:30.800Z,99864.80
2023-05-22T05:50:00.217Z,99864.13
2023-05-22T05:52:32.903Z,99866.00
2023-05-22T05:55:05.013Z,99868.25
2023-05-22T05:57:33.926Z,99866.40
2023-05-22T06:00:04.959Z,99863.67
2023-05-22T06:02:43.084Z,99863.95
2023-05-22T06:05:28.810Z,99860.41
2023-05-22T06:08:05.360Z,99859.98
2023-05-22T06:10:34.348Z,99856.89
2023-05-22T06:13:12.952Z,99858.19
2023-05-22T06:15:41.997Z,99855.56
2023-05-22T06:18:11.249Z,99848.33
2023-05-22T06:20:40.906Z,99850.50
2023-05-22T06:23:10.439Z,99848.34
2023-05-22T06:25:39.650Z,99848.60
2023-05-22T06:28:08.412Z,99846.23
2023-05-22T06:30:40.424Z,99848.11
2023-05-22T06:33:13.889Z,99849.67
2023-05-22T06:35:43.253Z,99846.67
2023-05-22T06:38:12.204Z,99849.96
2023-05-22T06:40:44.320Z,99851.61
2023-05-22T06:43:19.918Z,99849.29
2023-05-22T06:45:53.777Z,99852.74
2023-05-22T06:48:25.216Z,99852.83
2023-05-22T06:51:05.447Z,99851.67
2023-05-22T06:53:34.502Z,99851.30
2023-05-22T06:56:03.292Z,99850.02
2023-05-22T06:58:43.932Z,99844.42
2023-05-22T07:01:12.844Z,99844.73
2023-05-22T07:03:48.221Z,99839.02
2023-05-22T07:06:49.436Z,99836.49
2023-05-22T07:09:18.717Z,99836.64
2023-05-22T07:11:47.638Z,99838.09
2023-05-22T07:14:17.586Z,99837.59
2023-05-22T07:16:47.099Z,99837.38
2023-05-22T07:19:19.283Z,99842.05
2023-05-22T07:21:48.172Z,99841.64
2023-05-22T07:24:18.790Z,99838.42
2023-05-22T07:26:47.827Z,99837.63
2023-05-22T07:29:17.454Z,99841.35
2023-05-22T07:31:47.942Z,99838.30
2023-05-22T07:34:17.462Z,99835.98
2023-05-22T07:36:46.404Z,99833.98
2023-05-22T07:39:16.084Z,99836.59
2023-05-22T07:41:49.983Z,99831.33
2023-05-22T07:44:18.995Z,99832.45
2023-05-22T07:46:47.984Z,99831.01
2023-05-22T07:49:21.551Z,99829.30
2023-05-22T07:51:50.811Z,99830.58
2023-05-22T07:54:20.531Z,99835.27
2023-05-22T07:56:52.669Z,99828.88
2023-05-22T07:59:24.744Z,99829.27
2023-05-22T08:01:55.028Z,99821.09
2023-05-22T08:04:25.471Z,99819.68
2023-05-22T08:06:54.267Z,99817.25
2023-05-22T08:09:22.970Z,99821.16
2023-05-22T08:11:51.706Z,99812.81
2023-05-22T08:14:22.287Z,99818.83
2023-05-22T08:16:51.090Z,99822.38
2023-05-22T08:19:20.006Z,99822.48
2023-05-22T08:21:48.774Z,99821.89
2023-05-22T08:24:17.491Z,99822.13
2023-05-22T08:26:46.148Z,99819.42
2023-05-22T08:29:14.875Z,99827.64
2023-05-22T08:31:43.538Z,99828.16
2023-05-22T08:34:12.403Z,99826.02
2023-05-22T08:36:41.107Z,99826.11
2023-05-22T08:39:11.579Z,99823.41
2023-05-22T08:41:42.545Z,99827.23
2023-05-22T08:44:12.714Z,99818.97
2023-05-22T08:46:43.437Z,99820.18
2023-05-22T08:49:13.425Z,99819.05
2023-05-22T08:51:45.831Z,99818.34
2023-05-22T08:54:18.620Z,99805.60
2023-05-22T08:56:56.258Z,99806.44
2023-05-22T08:59:25.931Z,99801.93
2023-05-22T09:01:56.136Z,99806.50
2023-05-22T09:04:25.148Z,99803.22
2023-05-22T09:06:54.598Z,99801.55
2023-05-22T09:09:23.278Z,99789.98
2023-05-22T09:11:54.554Z,99792.52
2023-05-22T09:14:24.571Z,99793.93
2023-05-22T09:16:54.264Z,99791.89
2023-05-22T09:19:23.390Z,99788.44
2023-05-22T09:21:52.295Z,99788.83
2023-05-22T09:24:21.089Z,99785.73
2023-05-22T09:26:51.869Z,99781.34
2023-05-22T09:29:20.758Z,99781.20
2023-05-22T09:31:49.638Z,99784.94
2023-05-22T09:34:18.522Z,99782.73
2023-05-22T09:36:49.396Z,99779.88
2023-05-22T09:39:18.204Z,99779.61
2023-05-22T09:41:46.895Z,99778.59
2023-05-22T09:44:16.304Z,99775.30
2023-05-22T09:46:46.666Z,99767.94
2023-05-22T09:49:16.993Z,99767.48
2023-05-22T09:51:47.783Z,99763.95
2023-05-22T09:54:18.633Z,99766.61
2023-05-22T09:56:49.929Z,99765.16
2023-05-22T09:59:20.313Z,99761.83
2023-05-22T10:01:50.071Z,99763.27
2023-05-22T10:04:21.801Z,99761.21
2023-05-22T10:06:53.357Z,99763.04
2023-05-22T10:09:26.063Z,99758.37
2023-05-22T10:11:58.519Z,99759.73
2023-05-22T10:14:28.902Z,99759.09
2023-05-22T10:17:01.627Z,99757.53
2023-05-22T10:19:32.027Z,99757.20
2023-05-22T10:22:01.802Z,99755.48
2023-05-22T10:24:31.213Z,99751.73
2023-05-22T10:27:00.185Z,99754.55
2023-05-22T10:29:35.930Z,99749.42
2023-05-22T10:32:14.869Z,99748.45
2023-05-22T10:34:53.929Z,99745.90
2023-05-22T10:37:38.611Z,99749.80
2023-05-22T10:40:11.944Z,99742.99
2023-05-22T10:42:40.889Z,99746.07
2023-05-22T10:45:11.711Z,99737.85
2023-05-22T10:47:40.646Z,99739.17
2023-05-22T10:50:11.856Z,99739.05
2023-05-22T10:52:43.057Z,99742.95
2023-05-22T10:55:13.124Z,99740.11
2023-05-22T10:57:42.567Z,99739.54
2023-05-22T11:00:15.286Z,99736.31
2023-05-22T11:02:45.849Z,99739.56
2023-05-22T11:05:34.258Z,99736.75
2023-05-22T11:08:31.447Z,99732.09
2023-05-22T11:11:11.977Z,99730.48
2023-05-22T11:13:41.053Z,99727.73
2023-05-22T11:16:11.149Z,99723.76
2023-05-22T11:18:39.866Z,99720.01
2023-05-22T11:21:11.598Z,99717.80
2023-05-22T11:23:40.692Z,99714.92
2023-05-22T11:26:19.787Z,99714.50
2023-05-22T11:28:51.807Z,99714.61
2023-05-22T11:31:24.261Z,99711.97
2023-05-22T11:33:54.052Z,99708.23
2023-05-22T11:36:23.550Z,99706.19
2023-05-22T11:38:56.827Z,99703.52
2023-05-22T11:41:30.275Z,99699.70
2023-05-22T11:44:00.918Z,99704.80
2023-05-22T11:46:29.967Z,99706.09
2023-05-22T11:48:58.747Z,99700.92
2023-05-22T11:51:28.055Z,99695.66
2023-05-22T11:53:57.930Z,99696.35
2023-05-22T11:56:26.576Z,99688.26
2023-05-22T11:58:55.388Z,99692.11
2023-05-22T12:01:24.102Z,99698.27
2023-05-22T12:03:53.802Z,99692.83
2023-05-22T12:06:22.916Z,99696.30
2023-05-22T12:08:51.788Z,99692.58
2023-05-22T12:11:21.038Z,99691.48
2023-05-22T12:13:59.648Z,99691.95
2023-05-22T12:16:28.398Z,99689.86
2023-05-22T12:18:57.194Z,99688.84
2023-05-22T12:21:27.574Z,99687.20
2023-05-22T12:23:56.305Z,99688.09
2023-05-22T12:26:24.932Z,99682.64
2023-05-22T12:28:54.887Z,99685.16
2023-05-22T12:31:24.128Z,99685.54
2023-05-22T12:33:55.352Z,99686.92
2023-05-22T12:36:32.664Z,99690.30
2023-05-22T12:39:01.981Z,99687.80
2023-05-22T12:41:30.659Z,99680.59
2023-05-22T12:44:01.470Z,99677.76
2023-05-22T12:46:31.152Z,99675.02
2023-05-22T12:49:00.892Z,99673.75
2023-05-22T12:51:30.662Z,99675.05
2023-05-22T12:54:00.838Z,99672.74
2023-05-22T12:56:30.020Z,99669.96
2023-05-22T12:58:58.996Z,99669.76
2023-05-22T13:01:27.814Z,99664.40
2023-05-22T13:03:56.568Z,99667.98
2023-05-22T13:06:27.083Z,99663.98
2023-05-22T13:09:00.277Z,99663.30
2023-05-22T13:11:29.057Z,99661.76
2023-05-22T13:13:58.321Z,99664.52
2023-05-22T13:16:27.099Z,99667.74
2023-05-22T13:18:55.910Z,99664.40
2023-05-22T13:21:26.446Z,99663.02
2023-05-22T13:23:55.568Z,99660.20
2023-05-22T13:26:24.377Z,99657.49
2023-05-22T13:28:53.168Z,99656.66
2023-05-22T13:31:21.945Z,99657.23
2023-05-22T13:33:50.712Z,99660.08
2023-05-22T13:36:19.779Z,99653.23
2023-05-22T13:38:48.727Z,99650.16
2023-05-22T13:41:17.612Z,99649.59
2023-05-22T13:43:46.544Z,99647.69
2023-05-22T13:46:15.318Z,99649.60
2023-05-22T13:48:44.124Z,99645.09
2023-05-22T13:51:12.888Z,99639.92
2023-05-22T13:53:41.738Z,99636.60
2023-05-22T13:56:10.595Z,99631.54
2023-05-22T13:58:41.115Z,99629.54
2023-05-22T14:01:11.950Z,99623.99
2023-05-22T14:03:44.885Z,99627.43
2023-05-22T14:06:18.655Z,99627.33
2023-05-22T14:09:15.818Z,99623.80
2023-05-22T14:11:57.252Z,99628.98
2023-05-22T14:14:37.385Z,99622.63
2023-05-22T14:17:09.351Z,99619.13
2023-05-22T14:19:39.108Z,99616.11
2023-05-22T14:22:11.337Z,99612.48
2023-05-22T14:24:40.050Z,99614.16
2023-05-22T14:27:09.497Z,99608.48
2023-05-22T14:29:38.296Z,99605.02
2023-05-22T14:32:07.294Z,99601.52
2023-05-22T14:34:36.135Z,99600.95
2023-05-22T14:37:05.239Z,99600.70
2023-05-22T14:39:34.187Z,99598.42
2023-05-22T14:42:02.905Z,99595.80
2023-05-22T14:44:32.002Z,99594.45
2023-05-22T14:47:00.796Z,99594.96
2023-05-22T14:49:29.613Z,99594.95
2023-05-22T14:51:58.411Z,99594.25
2023-05-22T14:54:27.503Z,99592.67
2023-05-22T14:56:56.441Z,99589.61
2023-05-22T14:59:25.369Z,99594.86
2023-05-22T15:01:54.463Z,99591.66
2023-05-22T15:04:24.195Z,99588.66
2023-05-22T15:06:54.373Z,99586.93
2023-05-22T15:09:23.181Z,99591.29
2023-05-22T15:11:51.922Z,99587.23
2023-05-22T15:14:20.898Z,99585.93
2023-05-22T15:16:49.730Z,99580.21
2023-05-22T15:19:18.638Z,99580.27
2023-05-22T15:21:47.572Z,99578.23
2023-05-22T15:24:16.546Z,99575.83
2023-05-22T15:26:45.461Z,99573.41
2023-05-22T15:29:14.377Z,99566.88
2023-05-22T15:31:43.307Z,99562.98
2023-05-22T15:34:12.236Z,99560.70
2023-05-22T15:36:40.988Z,99558.96
2023-05-22T15:39:09.777Z,99558.73
2023-05-22T15:41:38.478Z,99561.67
2023-05-22T15:44:10.653Z,99560.64
2023-05-22T15:46:39.409Z,99555.39
2023-05-22T15:49:08.233Z,99558.42
2023-05-22T15:51:37.098Z,99555.16
2023-05-22T15:54:08.863Z,99555.08
2023-05-22T15:56:37.720Z,99551.02
2023-05-22T15:59:06.452Z,99553.49
2023-05-22T16:01:35.267Z,99549.42
2023-05-22T16:04:04.246Z,99544.66
2023-05-22T16:06:32.955Z,99545.00
2023-05-22T16:09:01.783Z,99548.02
2023-05-22T16:11:30.504Z,99541.98
2023-05-22T16:14:00.286Z,99541.40
2023-05-22T16:16:29.088Z,99538.84
2023-05-22T16:18:57.934Z,99534.69
2023-05-22T16:21:26.703Z,99534.66
2023-05-22T16:23:57.006Z,99538.59
2023-05-22T16:26:26.310Z,99534.04
2023-05-22T16:28:55.328Z,99534.75
2023-05-22T16:31:24.513Z,99535.33
2023-05-22T16:33:53.721Z,99539.80
2023-05-22T16:36:24.165Z,99541.94
2023-05-22T16:38:54.443Z,99538.73
2023-05-22T16:41:23.228Z,99543.20
2023-05-22T16:43:52.119Z,99538.67
2023-05-22T16:46:21.032Z,99541.24
2023-05-22T16:48:50.189Z,99539.60
2023-05-22T16:51:19.225Z,99540.83
2023-05-22T16:53:48.114Z,99540.27
2023-05-22T16:56:19.700Z,99543.77
2023-05-22T16:58:48.895Z,99549.60
2023-05-22T17:01:18.195Z,99554.44
2023-05-22T17:03:47.106Z,99558.23
2023-05-22T17:06:17.829Z,99558.27
2023-05-22T17:08:47.736Z,99559.38
2023-05-22T17:11:16.571Z,99563.20
2023-05-22T17:13:45.382Z,99563.55
2023-05-22T17:16:14.169Z,99563.62
2023-05-22T17:18:42.962Z,99563.19
2023-05-22T17:21:11.756Z,99560.07
2023-05-22T17:23:40.568Z,99560.59
2023-05-22T17:26:09.276Z,99561.27
2023-05-22T17:28:38.122Z,99561.34
2023-05-22T17:31:06.929Z,99561.14
2023-05-22T17:33:35.597Z,99560.47
2023-05-22T17:36:04.886Z,99557.89
2023-05-22T17:38:33.671Z,99561.60
2023-05-22T17:41:03.093Z,99562.19
2023-05-22T17:43:34.583Z,99559.11
2023-05-22T17:46:03.650Z,99559.84
2023-05-22T17:48:33.139Z,99556.77
2023-05-22T17:51:02.081Z,99551.55
2023-05-22T17:53:33.480Z,99552.92
2023-05-22T17:56:02.714Z,99555.63
2023-05-22T17:58:31.791Z,99551.55
2023-05-22T18:01:00.540Z,99554.43
2023-05-22T18:03:34.587Z,99557.47
2023-05-22T18:06:03.465Z,99551.54
2023-05-22T18:08:32.304Z,99553.51
2023-05-22T18:11:01.307Z,99555.89
2023-05-22T18:13:30.156Z,99552.43
2023-05-22T18:16:01.236Z,99553.14
2023-05-22T18:18:30.051Z,99554.90
2023-05-22T18:20:59.719Z,99554.35
2023-05-22T18:23:28.465Z,99554.94
2023-05-22T18:25:57.354Z,99553.96
2023-05-22T18:28:26.755Z,99552.86
2023-05-22T18:30:55.452Z,99555.13
2023-05-22T18:33:24.734Z,99552.77
2023-05-22T18:35:53.836Z,99559.05
2023-05-22T18:38:25.020Z,99562.45
2023-05-22T18:40:55.703Z,99564.95
2023-05-22T18:43:27.588Z,99565.71
2023-05-22T18:45:57.389Z,99566.95
2023-05-22T18:48:27.589Z,99562.25
2023-05-22T18:50:56.963Z,99561.63
2023-05-22T18:53:26.676Z,99563.99
2023-05-22T18:55:55.464Z,99562.72
2023-05-22T18:58:26.195Z,99564.30
2023-05-22T19:00:55.751Z,99564.60
2023-05-22T19:03:24.715Z,99565.16
2023-05-22T19:05:54.119Z,99562.15
2023-05-22T19:08:26.105Z,99569.99
2023-05-22T19:10:57.750Z,99574.30
2023-05-22T19:13:26.461Z,99578.02
2023-05-22T19:15:57.717Z,99576.05
2023-05-22T19:18:28.322Z,99578.67
2023-05-22T19:20:57.164Z,99580.58
2023-05-22T19:23:28.889Z,99580.05
2023-05-22T19:25:59.981Z,99581.55
2023-05-22T19:28:31.043Z,99583.62
2023-05-22T19:31:02.508Z,99588.66
2023-05-22T19:33:36.908Z,99589.09
2023-05-22T19:36:06.411Z,99588.67
2023-05-22T19:38:36.347Z,99589.48
2023-05-22T19:41:05.272Z,99589.89
2023-05-22T19:43:34.295Z,99589.63
2023-05-22T19:46:06.505Z,99592.27
2023-05-22T19:48:38.037Z,99590.98
2023-05-22T19:51:08.149Z,99590.13
2023-05-22T19:53:37.641Z,99584.71
2023-05-22T19:56:07.210Z,99588.73
2023-05-22T19:58:37.524Z,99581.98
2023-05-22T20:01:07.153Z,99581.20
2023-05-22T20:03:37.052Z,99577.81
2023-05-22T20:06:06.967Z,99577.81
2023-05-22T20:08:35.796Z,99574.10
2023-05-22T20:11:04.534Z,99574.57
2023-05-22T20:13:33.388Z,99573.64
2023-05-22T20:16:11.038Z,99574.55
2023-05-22T20:18:41.358Z,99571.17
2023-05-22T20:21:10.241Z,99569.15
2023-05-22T20:23:39.866Z,99570.67
2023-05-22T20:26:08.707Z,99568.50
2023-05-22T20:28:37.925Z,99568.52
2023-05-22T20:31:06.637Z,99567.14
2023-05-22T20:33:35.467Z,99564.02
2023-05-22T20:36:04.596Z,99564.70
2023-05-22T20:38:34.162Z,99562.82
2023-05-22T20:41:05.825Z,99558.59
2023-05-22T20:43:34.522Z,99558.23
2023-05-22T20:46:03.566Z,99559.48
2023-05-22T20:48:32.336Z,99557.48
2023-05-22T20:51:01.157Z,99557.05
2023-05-22T20:53:29.980Z,99562.84
2023-05-22T20:55:58.709Z,99560.33
2023-05-22T20:58:27.421Z,99559.81
2023-05-22T21:00:57.043Z,99556.08
2023-05-22T21:03:26.071Z,99559.39
2023-05-22T21:05:54.892Z,99559.02
2023-05-22T21:08:23.556Z,99561.02
2023-05-22T21:10:52.338Z,99561.60
2023-05-22T21:13:21.190Z,99560.92
2023-05-22T21:15:50.102Z,99556.92
2023-05-22T21:18:19.108Z,99557.83
2023-05-22T21:20:47.803Z,99556.36
2023-05-22T21:23:16.666Z,99562.06
2023-05-22T21:25:45.307Z,99561.55
2023-05-22T21:28:14.464Z,99560.95
2023-05-22T21:30:43.180Z,99562.67
2023-05-22T21:33:11.939Z,99566.70
2023-05-22T21:35:40.733Z,99564.27
2023-05-22T21:38:09.509Z,99568.85
2023-05-22T21:40:39.851Z,99568.08
2023-05-22T21:43:08.881Z,99574.50
2023-05-22T21:45:38.404Z,99572.29
2023-05-22T21:48:07.151Z,99572.95
2023-05-22T21:50:35.989Z,99573.41
2023-05-22T21:53:04.764Z,99571.61
2023-05-22T21:55:35.327Z,99570.21
2023-05-22T21:58:04.644Z,99564.61
2023-05-22T22:00:33.423Z,99565.69
2023-05-22T22:03:02.272Z,99563.27
2023-05-22T22:05:31.242Z,99558.48
2023-05-22T22:08:00.103Z,99556.48
2023-05-22T22:10:29.017Z,99559.31
2023-05-22T22:12:57.876Z,99557.00
2023-05-22T22:15:26.740Z,99555.30
2023-05-22T22:17:59.420Z,99554.60
2023-05-22T22:20:42.515Z,99549.47
2023-05-22T22:23:12.763Z,99545.55
2023-05-22T22:25:41.549Z,99543.05
2023-05-22T22:28:12.177Z,99542.73
2023-05-22T22:30:41.126Z,99544.55
2023-05-22T22:33:10.976Z,99543.98
2023-05-22T22:35:40.459Z,99549.77
2023-05-22T22:38:09.490Z,99550.28
2023-05-22T22:40:38.155Z,99550.52
2023-05-22T22:43:06.966Z,99547.90
2023-05-22T22:45:35.827Z,99546.70
2023-05-22T22:48:05.222Z,99544.83
2023-05-22T22:50:34.121Z,99544.91
2023-05-22T22:53:02.911Z,99542.05
2023-05-22T22:55:31.868Z,99540.30
2023-05-22T22:58:01.359Z,99543.48
2023-05-22T23:00:30.079Z,99537.22
2023-05-22T23:02:59.012Z,99538.45
2023-05-22T23:05:27.854Z,99537.60
2023-05-22T23:07:57.834Z,99534.81
2023-05-22T23:10:26.495Z,99536.39
2023-05-22T23:12:55.332Z,99533.38
2023-05-22T23:15:24.205Z,99532.66
2023-05-22T23:17:52.981Z,99532.28
2023-05-22T23:20:21.751Z,99529.77
2023-05-22T23:22:50.828Z,99529.64
2023-05-22T23:25:19.531Z,99526.45
2023-05-22T23:27:48.361Z,99522.25
2023-05-22T23:30:17.462Z,99523.75
2023-05-22T23:32:46.229Z,99521.02
2023-05-22T23:35:15.012Z,99516.92
2023-05-22T23:37:43.747Z,99511.37
2023-05-22T23:40:13.585Z,99508.89
2023-05-22T23:42:42.391Z,99511.35
2023-05-22T23:45:11.758Z,99507.47
2023-05-22T23:47:40.524Z,99502.27
2023-05-22T23:50:10.705Z,99499.41
2023-05-22T23:52:39.497Z,99498.08
2023-05-22T23:55:09.914Z,99496.66
2023-05-22T23:57:38.609Z,99492.36
